Thunder radar more information blitzortung!


Radar de pluja more information rain snow radar


Visita la nostra xarxa de llocs de meteo:

Template documentation
and downloads

And another site



No particular awareness of the weather is required.    There are no Weather-warnings

Pagina Historial Weather Underground text

Diari Resum May 22, 2017 Unitats:  Tant    Imperial   Mètric
« Previous Dia
SegĂźent Dia »
Diari Setmana Mensual Anual Personalitzada
  Maxima: Minima: Media:
Temperatura: 83.3 °F /  28.5 °C 60.1 °F /  15.6 °C 72.9 °F /  22.7 °C
Punt de rosada: 56.7 °F /  13.7 °C 47.8 °F /  8.8 °C 51.8 °F /  11 °C
Humitat: 76 % 36 % 49 %
Wind Speed: 12.7 mph /  20.4 km/h - 4.5 mph /  7.2 km/h
RĂ fegues de vent: 12.7 mph /  20.4 km/h - -
Vent:- - SSW
Pression baro: 30.1 in /  1019.9 hPa 30 in /  1015.8 hPa -
Precipitacions: 0 in /  0.0 mm    
Historical Graphs
 
 
Dades de taula per May 22, 2017
Temps Temperatura Punt de rosada Pression baro Vent Wind Speed RĂ fegues de vent Humitat Rainfall Rate (Hourly)
00:01 62.6 °F /  17.0 °C 49.5 °F /  9.7 °C 30.1 in /  1019.9 hPa SW 2.3 mph /  3.7 km/h 2.3 mph /  3.7 km/h 62 % 0 in /  0.0 mm
00:06 62.4 °F /  16.9 °C 49.6 °F /  9.8 °C 30.1 in /  1019.9 hPa SW 1.4 mph /  2.3 km/h 1.4 mph /  2.3 km/h 63 % 0 in /  0.0 mm
00:11 62.4 °F /  16.9 °C 50.2 °F /  10.1 °C 30.1 in /  1019.9 hPa Calm     64 % 0 in /  0.0 mm
00:16 62.4 °F /  16.9 °C 50.2 °F /  10.1 °C 30.1 in /  1019.9 hPa SW 1.2 mph /  1.9 km/h   64 % 0 in /  0.0 mm
04:40 68 °F /  20.0 °C 55.8 °F /  13.2 °C 30.1 in /  1019.9 hPa SW 2 mph /  3.2 km/h 2 mph /  3.2 km/h 65 % 0 in /  0.0 mm
04:50 69.3 °F /  20.7 °C 56.7 °F /  13.7 °C 30.1 in /  1019.9 hPa SW 1 mph /  1.6 km/h 3 mph /  4.8 km/h 64 % 0 in /  0.0 mm
04:55 68.7 °F /  20.4 °C 55.6 °F /  13.1 °C 30.1 in /  1018.8 hPa SSW 3 mph /  4.8 km/h 6 mph /  9.7 km/h 63 % 0 in /  0.0 mm
05:05 69.6 °F /  20.9 °C 55.6 °F /  13.1 °C 30.1 in /  1018.8 hPa SSW 2 mph /  3.2 km/h 6 mph /  9.7 km/h 61 % 0 in /  0.0 mm
05:15 69.8 °F /  21.0 °C 54.3 °F /  12.4 °C 30.1 in /  1018.8 hPa SSW 3 mph /  4.8 km/h 5 mph /  8.0 km/h 58 % 0 in /  0.0 mm
05:25 70.2 °F /  21.2 °C 54.7 °F /  12.6 °C 30.1 in /  1018.8 hPa SSW 2 mph /  3.2 km/h 8 mph /  12.9 km/h 58 % 0 in /  0.0 mm
10:33 71.4 °F /  21.9 °C 54.9 °F /  12.7 °C 30.1 in /  1018.8 hPa SSW 4.6 mph /  7.4 km/h 4.6 mph /  7.4 km/h 56 % 0 in /  0.0 mm
10:38 71.8 °F /  22.1 °C 54.1 °F /  12.3 °C 30.1 in /  1018.8 hPa SW 4.6 mph /  7.4 km/h 4.6 mph /  7.4 km/h 54 % 0 in /  0.0 mm
10:43 73 °F /  22.8 °C 55.4 °F /  13.0 °C 30.1 in /  1018.8 hPa SW 4.6 mph /  7.4 km/h 4.6 mph /  7.4 km/h 54 % 0 in /  0.0 mm
10:48 72.7 °F /  22.6 °C 55 °F /  12.8 °C 30.1 in /  1018.8 hPa West 4.6 mph /  7.4 km/h 4.6 mph /  7.4 km/h 54 % 0 in /  0.0 mm
10:53 73.6 °F /  23.1 °C 54.9 °F /  12.7 °C 30.1 in /  1018.8 hPa SW 5.4 mph /  8.7 km/h 5.4 mph /  8.7 km/h 52 % 0 in /  0.0 mm
10:58 74.3 °F /  23.5 °C 55 °F /  12.8 °C 30.1 in /  1018.8 hPa SSW 5.8 mph /  9.3 km/h 5.8 mph /  9.3 km/h 51 % 0 in /  0.0 mm
11:03 75 °F /  23.9 °C 55 °F /  12.8 °C 30.1 in /  1018.8 hPa WSW 3.5 mph /  5.6 km/h 3.5 mph /  5.6 km/h 50 % 0 in /  0.0 mm
11:08 74.3 °F /  23.5 °C 54.5 °F /  12.5 °C 30.1 in /  1018.8 hPa SW 6.9 mph /  11.1 km/h 6.9 mph /  11.1 km/h 50 % 0 in /  0.0 mm
11:13 74.1 °F /  23.4 °C 53.2 °F /  11.8 °C 30.1 in /  1018.8 hPa SSW 8.1 mph /  13.0 km/h 8.1 mph /  13.0 km/h 48 % 0 in /  0.0 mm
11:18 74.5 °F /  23.6 °C 52.9 °F /  11.6 °C 30.1 in /  1018.8 hPa SW 5.8 mph /  9.3 km/h 5.8 mph /  9.3 km/h 47 % 0 in /  0.0 mm
11:23 74.7 °F /  23.7 °C 53.1 °F /  11.7 °C 30.1 in /  1019.9 hPa SSW 5.8 mph /  9.3 km/h 5.8 mph /  9.3 km/h 47 % 0 in /  0.0 mm
11:28 75.7 °F /  24.3 °C 54.1 °F /  12.3 °C 30.1 in /  1019.9 hPa SW 4.9 mph /  7.9 km/h 4.9 mph /  7.9 km/h 47 % 0 in /  0.0 mm
11:33 75.4 °F /  24.1 °C 53.8 °F /  12.1 °C 30.1 in /  1019.9 hPa ESE 5.8 mph /  9.3 km/h 5.8 mph /  9.3 km/h 47 % 0 in /  0.0 mm
11:38 75.4 °F /  24.1 °C 53.8 °F /  12.1 °C 30.1 in /  1018.8 hPa SSE 5.8 mph /  9.3 km/h 5.8 mph /  9.3 km/h 47 % 0 in /  0.0 mm
11:43 75.9 °F /  24.4 °C 53.6 °F /  12.0 °C 30.1 in /  1018.8 hPa South 8.1 mph /  13.0 km/h 8.1 mph /  13.0 km/h 46 % 0 in /  0.0 mm
11:48 75.6 °F /  24.2 °C 53.2 °F /  11.8 °C 30.1 in /  1018.8 hPa WSW 4.6 mph /  7.4 km/h 4.6 mph /  7.4 km/h 46 % 0 in /  0.0 mm
11:53 77 °F /  25.0 °C 54.7 °F /  12.6 °C 30.1 in /  1018.8 hPa WSW 3.5 mph /  5.6 km/h 3.5 mph /  5.6 km/h 46 % 0 in /  0.0 mm
11:58 75.9 °F /  24.4 °C 53.6 °F /  12.0 °C 30.1 in /  1018.8 hPa SW 8.1 mph /  13.0 km/h 8.1 mph /  13.0 km/h 46 % 0 in /  0.0 mm
12:03 75.9 °F /  24.4 °C 54.1 °F /  12.3 °C 30.1 in /  1018.8 hPa WSW 4.5 mph /  7.2 km/h 4.5 mph /  7.2 km/h 47 % 0 in /  0.0 mm
12:08 75.9 °F /  24.4 °C 54.1 °F /  12.3 °C 30.1 in /  1018.8 hPa SSW 9.2 mph /  14.8 km/h 9.2 mph /  14.8 km/h 47 % 0 in /  0.0 mm
12:13 76.5 °F /  24.7 °C 55.2 °F /  12.9 °C 30.1 in /  1018.8 hPa SW 5.8 mph /  9.3 km/h 5.8 mph /  9.3 km/h 48 % 0 in /  0.0 mm
12:18 75.6 °F /  24.2 °C 54 °F /  12.2 °C 30.1 in /  1018.8 hPa SW 9.2 mph /  14.8 km/h 9.2 mph /  14.8 km/h 47 % 0 in /  0.0 mm
12:23 76.1 °F /  24.5 °C 54.3 °F /  12.4 °C 30.1 in /  1018.8 hPa South 9.2 mph /  14.8 km/h 9.2 mph /  14.8 km/h 47 % 0 in /  0.0 mm
12:28 77 °F /  25.0 °C 54.7 °F /  12.6 °C 30.1 in /  1018.8 hPa SW 5.8 mph /  9.3 km/h 5.8 mph /  9.3 km/h 46 % 0 in /  0.0 mm
12:33 77.7 °F /  25.4 °C 55.2 °F /  12.9 °C 30.1 in /  1018.8 hPa West 7.4 mph /  11.9 km/h 7.4 mph /  11.9 km/h 46 % 0 in /  0.0 mm
12:38 76.6 °F /  24.8 °C 53.8 °F /  12.1 °C 30.1 in /  1018.8 hPa West 8.1 mph /  13.0 km/h 8.1 mph /  13.0 km/h 45 % 0 in /  0.0 mm
12:43 76.8 °F /  24.9 °C 54 °F /  12.2 °C 30.1 in /  1018.8 hPa SW 8.1 mph /  13.0 km/h 8.1 mph /  13.0 km/h 45 % 0 in /  0.0 mm
12:48 77.2 °F /  25.1 °C 54.1 °F /  12.3 °C 30.1 in /  1018.8 hPa SSW 9.8 mph /  15.8 km/h 9.8 mph /  15.8 km/h 45 % 0 in /  0.0 mm
12:53 76.8 °F /  24.9 °C 54 °F /  12.2 °C 30.1 in /  1018.8 hPa SW 5.8 mph /  9.3 km/h 5.8 mph /  9.3 km/h 45 % 0 in /  0.0 mm
12:54 77 °F /  25.0 °C 53.4 °F /  11.9 °C 30.1 in /  1018.8 hPa SW 5.8 mph /  9.3 km/h 5.8 mph /  9.3 km/h 44 % 0 in /  0.0 mm
12:59 77.5 °F /  25.3 °C 53.2 °F /  11.8 °C 30.1 in /  1018.8 hPa SSW 8.1 mph /  13.0 km/h 8.1 mph /  13.0 km/h 43 % 0 in /  0.0 mm
13:04 78.1 °F /  25.6 °C 54.3 °F /  12.4 °C 30.1 in /  1018.8 hPa SSE 6 mph /  9.7 km/h 6 mph /  9.7 km/h 44 % 0 in /  0.0 mm
13:09 77.5 °F /  25.3 °C 54 °F /  12.2 °C 30.1 in /  1017.8 hPa SSW 9.2 mph /  14.8 km/h 9.2 mph /  14.8 km/h 44 % 0 in /  0.0 mm
13:14 77 °F /  25.0 °C 53.4 °F /  11.9 °C 30.1 in /  1017.8 hPa SW 8.1 mph /  13.0 km/h 8.1 mph /  13.0 km/h 44 % 0 in /  0.0 mm
13:19 77.5 °F /  25.3 °C 54 °F /  12.2 °C 30.1 in /  1017.8 hPa SW 6.9 mph /  11.1 km/h 6.9 mph /  11.1 km/h 44 % 0 in /  0.0 mm
13:24 77.4 °F /  25.2 °C 53.8 °F /  12.1 °C 30.1 in /  1018.8 hPa SW 6.9 mph /  11.1 km/h 6.9 mph /  11.1 km/h 44 % 0 in /  0.0 mm
13:29 78.1 °F /  25.6 °C 54.3 °F /  12.4 °C 30.1 in /  1018.8 hPa South 5.8 mph /  9.3 km/h 5.8 mph /  9.3 km/h 44 % 0 in /  0.0 mm
13:34 79.2 °F /  26.2 °C 55.4 °F /  13.0 °C 30.1 in /  1018.8 hPa SW 4.3 mph /  6.9 km/h 4.3 mph /  6.9 km/h 44 % 0 in /  0.0 mm
13:39 79.3 °F /  26.3 °C 55.6 °F /  13.1 °C 30.1 in /  1018.8 hPa West 5.8 mph /  9.3 km/h 5.8 mph /  9.3 km/h 44 % 0 in /  0.0 mm
13:44 79.7 °F /  26.5 °C 55.9 °F /  13.3 °C 30.1 in /  1018.8 hPa WSW 5.8 mph /  9.3 km/h 5.8 mph /  9.3 km/h 44 % 0 in /  0.0 mm
13:49 79.3 °F /  26.3 °C 55.6 °F /  13.1 °C 30.1 in /  1018.8 hPa SSW 6.2 mph /  10.0 km/h 6.2 mph /  10.0 km/h 44 % 0 in /  0.0 mm
13:54 79 °F /  26.1 °C 55.2 °F /  12.9 °C 30.1 in /  1018.8 hPa WSW 6.9 mph /  11.1 km/h 6.9 mph /  11.1 km/h 44 % 0 in /  0.0 mm
13:59 79 °F /  26.1 °C 54.7 °F /  12.6 °C 30.1 in /  1018.8 hPa SSW 5.8 mph /  9.3 km/h 5.8 mph /  9.3 km/h 43 % 0 in /  0.0 mm
14:04 79 °F /  26.1 °C 54.7 °F /  12.6 °C 30.1 in /  1018.8 hPa WSW 5.8 mph /  9.3 km/h 5.8 mph /  9.3 km/h 43 % 0 in /  0.0 mm
14:09 79.7 °F /  26.5 °C 55.2 °F /  12.9 °C 30.1 in /  1018.8 hPa SSW 6 mph /  9.7 km/h 6 mph /  9.7 km/h 43 % 0 in /  0.0 mm
14:14 79 °F /  26.1 °C 54.7 °F /  12.6 °C 30.1 in /  1018.8 hPa SW 6.2 mph /  10.0 km/h 6.2 mph /  10.0 km/h 43 % 0 in /  0.0 mm
14:19 79.5 °F /  26.4 °C 55 °F /  12.8 °C 30.1 in /  1018.8 hPa NW 5.8 mph /  9.3 km/h 5.8 mph /  9.3 km/h 43 % 0 in /  0.0 mm
14:24 79.7 °F /  26.5 °C 55.2 °F /  12.9 °C 30.1 in /  1017.8 hPa SW 4.6 mph /  7.4 km/h 4.6 mph /  7.4 km/h 43 % 0 in /  0.0 mm
14:29 79.7 °F /  26.5 °C 55.2 °F /  12.9 °C 30.1 in /  1017.8 hPa WSW 5.6 mph /  9.0 km/h 5.6 mph /  9.0 km/h 43 % 0 in /  0.0 mm
14:34 80.4 °F /  26.9 °C 55.2 °F /  12.9 °C 30.1 in /  1017.8 hPa West 8.1 mph /  13.0 km/h 8.1 mph /  13.0 km/h 42 % 0 in /  0.0 mm
14:39 80.1 °F /  26.7 °C 54.9 °F /  12.7 °C 30.1 in /  1017.8 hPa East 6.9 mph /  11.1 km/h 6.9 mph /  11.1 km/h 42 % 0 in /  0.0 mm
14:44 79.9 °F /  26.6 °C 54.7 °F /  12.6 °C 30.1 in /  1017.8 hPa SW 5.8 mph /  9.3 km/h 5.8 mph /  9.3 km/h 42 % 0 in /  0.0 mm
14:49 80.8 °F /  27.1 °C 54.9 °F /  12.7 °C 30.1 in /  1017.8 hPa SSW 6.9 mph /  11.1 km/h 6.9 mph /  11.1 km/h 41 % 0 in /  0.0 mm
14:54 81 °F /  27.2 °C 55 °F /  12.8 °C 30.1 in /  1017.8 hPa WSW 6.2 mph /  10.0 km/h 6.2 mph /  10.0 km/h 41 % 0 in /  0.0 mm
14:59 80.1 °F /  26.7 °C 54.9 °F /  12.7 °C 30.1 in /  1017.8 hPa WSW 5.8 mph /  9.3 km/h 5.8 mph /  9.3 km/h 42 % 0 in /  0.0 mm
15:04 79.9 °F /  26.6 °C 54.1 °F /  12.3 °C 30.1 in /  1017.8 hPa WSW 8.1 mph /  13.0 km/h 8.1 mph /  13.0 km/h 41 % 0 in /  0.0 mm
15:09 81.3 °F /  27.4 °C 55.4 °F /  13.0 °C 30.1 in /  1017.8 hPa SSE 5.8 mph /  9.3 km/h 5.8 mph /  9.3 km/h 41 % 0 in /  0.0 mm
15:14 81.9 °F /  27.7 °C 55.9 °F /  13.3 °C 30.1 in /  1017.8 hPa SSE 4.6 mph /  7.4 km/h 4.6 mph /  7.4 km/h 41 % 0 in /  0.0 mm
15:19 81 °F /  27.2 °C 54.3 °F /  12.4 °C 30.1 in /  1017.8 hPa WSW 8.1 mph /  13.0 km/h 8.1 mph /  13.0 km/h 40 % 0 in /  0.0 mm
15:24 80.6 °F /  27.0 °C 54 °F /  12.2 °C 30.1 in /  1017.8 hPa SW 5.9 mph /  9.5 km/h 5.9 mph /  9.5 km/h 40 % 0 in /  0.0 mm
15:29 80.8 °F /  27.1 °C 54.1 °F /  12.3 °C 30.1 in /  1017.8 hPa SSW 3.5 mph /  5.6 km/h 3.5 mph /  5.6 km/h 40 % 0 in /  0.0 mm
15:34 81.1 °F /  27.3 °C 53.8 °F /  12.1 °C 30.1 in /  1017.8 hPa WSW 6.9 mph /  11.1 km/h 6.9 mph /  11.1 km/h 39 % 0 in /  0.0 mm
15:39 81.9 °F /  27.7 °C 54.5 °F /  12.5 °C 30.1 in /  1017.8 hPa SE 2.9 mph /  4.7 km/h 2.9 mph /  4.7 km/h 39 % 0 in /  0.0 mm
15:44 82 °F /  27.8 °C 54.7 °F /  12.6 °C 30.1 in /  1017.8 hPa WSW 4.6 mph /  7.4 km/h 4.6 mph /  7.4 km/h 39 % 0 in /  0.0 mm
15:49 81.7 °F /  27.6 °C 53.6 °F /  12.0 °C 30.1 in /  1017.8 hPa SSW 6.9 mph /  11.1 km/h 6.9 mph /  11.1 km/h 38 % 0 in /  0.0 mm
15:54 81 °F /  27.2 °C 53.1 °F /  11.7 °C 30.1 in /  1017.8 hPa WSW 5.8 mph /  9.3 km/h 5.8 mph /  9.3 km/h 38 % 0 in /  0.0 mm
15:59 81.5 °F /  27.5 °C 54.1 °F /  12.3 °C 30.1 in /  1017.8 hPa WSW 6.9 mph /  11.1 km/h 6.9 mph /  11.1 km/h 39 % 0 in /  0.0 mm
16:04 81.7 °F /  27.6 °C 53.6 °F /  12.0 °C 30.1 in /  1017.8 hPa WSW 11.5 mph /  18.5 km/h 11.5 mph /  18.5 km/h 38 % 0 in /  0.0 mm
16:09 81.5 °F /  27.5 °C 53.4 °F /  11.9 °C 30.1 in /  1017.8 hPa SSE 6.9 mph /  11.1 km/h 6.9 mph /  11.1 km/h 38 % 0 in /  0.0 mm
16:14 82 °F /  27.8 °C 54 °F /  12.2 °C 30.1 in /  1017.8 hPa SW 3.5 mph /  5.6 km/h 3.5 mph /  5.6 km/h 38 % 0 in /  0.0 mm
16:19 82.6 °F /  28.1 °C 54.3 °F /  12.4 °C 30.1 in /  1017.8 hPa SW 5.8 mph /  9.3 km/h 5.8 mph /  9.3 km/h 38 % 0 in /  0.0 mm
16:24 82.8 °F /  28.2 °C 53.8 °F /  12.1 °C 30 in /  1016.8 hPa SW 5.8 mph /  9.3 km/h 5.8 mph /  9.3 km/h 37 % 0 in /  0.0 mm
16:29 82.6 °F /  28.1 °C 53.8 °F /  12.1 °C 30 in /  1016.8 hPa SSW 2.3 mph /  3.7 km/h 3.8 mph /  6.1 km/h 37 % 0 in /  0.0 mm
16:31 83.1 °F /  28.4 °C 54.1 °F /  12.3 °C 30 in /  1016.8 hPa South 5.8 mph /  9.3 km/h 5.8 mph /  9.3 km/h 37 % 0 in /  0.0 mm
16:36 83.3 °F /  28.5 °C 54.3 °F /  12.4 °C 30 in /  1016.8 hPa SW 3.5 mph /  5.6 km/h 3.5 mph /  5.6 km/h 37 % 0 in /  0.0 mm
16:41 81.3 °F /  27.4 °C 52.5 °F /  11.4 °C 30.1 in /  1017.8 hPa SSW 8.1 mph /  13.0 km/h 8.1 mph /  13.0 km/h 37 % 0 in /  0.0 mm
16:46 81.1 °F /  27.3 °C 52.3 °F /  11.3 °C 30.1 in /  1017.8 hPa SW 9.2 mph /  14.8 km/h 9.2 mph /  14.8 km/h 37 % 0 in /  0.0 mm
16:51 81 °F /  27.2 °C 52.2 °F /  11.2 °C 30.1 in /  1017.8 hPa WSW 8.1 mph /  13.0 km/h 8.1 mph /  13.0 km/h 37 % 0 in /  0.0 mm
16:56 80.6 °F /  27.0 °C 51.3 °F /  10.7 °C 30.1 in /  1017.8 hPa SW 11.5 mph /  18.5 km/h 11.5 mph /  18.5 km/h 36 % 0 in /  0.0 mm
17:01 80.1 °F /  26.7 °C 51.4 °F /  10.8 °C 30.1 in /  1017.8 hPa SSW 5.8 mph /  9.3 km/h 5.8 mph /  9.3 km/h 37 % 0 in /  0.0 mm
17:06 80.2 °F /  26.8 °C 51.6 °F /  10.9 °C 30.1 in /  1017.8 hPa SW 6.9 mph /  11.1 km/h 6.9 mph /  11.1 km/h 37 % 0 in /  0.0 mm
17:11 80.1 °F /  26.7 °C 51.4 °F /  10.8 °C 30.1 in /  1017.8 hPa SSW 8.1 mph /  13.0 km/h 8.1 mph /  13.0 km/h 37 % 0 in /  0.0 mm
17:16 81.3 °F /  27.4 °C 51.8 °F /  11.0 °C 30.1 in /  1017.8 hPa WSW 5.8 mph /  9.3 km/h 5.8 mph /  9.3 km/h 36 % 0 in /  0.0 mm
17:21 80.4 °F /  26.9 °C 51.8 °F /  11.0 °C 30.1 in /  1017.8 hPa SW 10.4 mph /  16.7 km/h 10.4 mph /  16.7 km/h 37 % 0 in /  0.0 mm
17:26 79.7 °F /  26.5 °C 51.1 °F /  10.6 °C 30.1 in /  1017.8 hPa SSE 12.7 mph /  20.4 km/h 12.7 mph /  20.4 km/h 37 % 0 in /  0.0 mm
17:31 79.3 °F /  26.3 °C 50.7 °F /  10.4 °C 30.1 in /  1017.8 hPa SW 10.4 mph /  16.7 km/h 10.4 mph /  16.7 km/h 37 % 0 in /  0.0 mm
17:36 78.6 °F /  25.9 °C 50.2 °F /  10.1 °C 30.1 in /  1017.8 hPa SSW 9.2 mph /  14.8 km/h 9.2 mph /  14.8 km/h 37 % 0 in /  0.0 mm
17:42 78.6 °F /  25.9 °C 50.2 °F /  10.1 °C 30 in /  1016.8 hPa WSW 10.4 mph /  16.7 km/h 10.4 mph /  16.7 km/h 37 % 0 in /  0.0 mm
17:47 77.9 °F /  25.5 °C 49.5 °F /  9.7 °C 30 in /  1016.8 hPa WSW 9.2 mph /  14.8 km/h 9.2 mph /  14.8 km/h 37 % 0 in /  0.0 mm
17:52 77.5 °F /  25.3 °C 49.3 °F /  9.6 °C 30 in /  1016.8 hPa SSW 8.1 mph /  13.0 km/h 8.1 mph /  13.0 km/h 37 % 0 in /  0.0 mm
17:57 77.7 °F /  25.4 °C 49.5 °F /  9.7 °C 30.1 in /  1017.8 hPa WSW 6.9 mph /  11.1 km/h 6.9 mph /  11.1 km/h 37 % 0 in /  0.0 mm
18:02 77.5 °F /  25.3 °C 49.3 °F /  9.6 °C 30.1 in /  1017.8 hPa West 9.2 mph /  14.8 km/h 9.2 mph /  14.8 km/h 37 % 0 in /  0.0 mm
18:07 77.4 °F /  25.2 °C 48.9 °F /  9.4 °C 30.1 in /  1017.8 hPa SW 5.8 mph /  9.3 km/h 5.8 mph /  9.3 km/h 37 % 0 in /  0.0 mm
18:12 76.8 °F /  24.9 °C 49.3 °F /  9.6 °C 30.1 in /  1017.8 hPa SW 6.9 mph /  11.1 km/h 6.9 mph /  11.1 km/h 38 % 0 in /  0.0 mm
18:17 76.5 °F /  24.7 °C 48.9 °F /  9.4 °C 30.1 in /  1017.8 hPa South 6.9 mph /  11.1 km/h 6.9 mph /  11.1 km/h 38 % 0 in /  0.0 mm
18:22 76.6 °F /  24.8 °C 49.1 °F /  9.5 °C 30.1 in /  1017.8 hPa WSW 5.9 mph /  9.5 km/h 5.9 mph /  9.5 km/h 38 % 0 in /  0.0 mm
18:27 76.3 °F /  24.6 °C 48.7 °F /  9.3 °C 30.1 in /  1017.8 hPa SW 10.4 mph /  16.7 km/h 10.4 mph /  16.7 km/h 38 % 0 in /  0.0 mm
18:32 76.5 °F /  24.7 °C 48.9 °F /  9.4 °C 30.1 in /  1017.8 hPa SSE 5.8 mph /  9.3 km/h 5.8 mph /  9.3 km/h 38 % 0 in /  0.0 mm
18:37 76.5 °F /  24.7 °C 48.9 °F /  9.4 °C 30 in /  1016.8 hPa WSW 9.2 mph /  14.8 km/h 9.2 mph /  14.8 km/h 38 % 0 in /  0.0 mm
18:42 75.7 °F /  24.3 °C 48.9 °F /  9.4 °C 30 in /  1016.8 hPa SW 7.8 mph /  12.6 km/h 7.8 mph /  12.6 km/h 39 % 0 in /  0.0 mm
18:47 75.9 °F /  24.4 °C 49.3 °F /  9.6 °C 30 in /  1016.8 hPa WSW 6.9 mph /  11.1 km/h 6.9 mph /  11.1 km/h 39 % 0 in /  0.0 mm
18:52 76.1 °F /  24.5 °C 49.3 °F /  9.6 °C 30 in /  1016.8 hPa SW 6.4 mph /  10.3 km/h 6.4 mph /  10.3 km/h 39 % 0 in /  0.0 mm
18:57 75.9 °F /  24.4 °C 49.3 °F /  9.6 °C 30 in /  1016.8 hPa SW 4.6 mph /  7.4 km/h 4.6 mph /  7.4 km/h 39 % 0 in /  0.0 mm
19:02 76.1 °F /  24.5 °C 49.3 °F /  9.6 °C 30 in /  1016.8 hPa WSW 4.6 mph /  7.4 km/h 4.6 mph /  7.4 km/h 39 % 0 in /  0.0 mm
19:07 75.9 °F /  24.4 °C 49.3 °F /  9.6 °C 30.1 in /  1017.8 hPa SSW 5.8 mph /  9.3 km/h 5.8 mph /  9.3 km/h 39 % 0 in /  0.0 mm
19:12 75.7 °F /  24.3 °C 49.6 °F /  9.8 °C 30.1 in /  1017.8 hPa SW 4.9 mph /  7.9 km/h 4.9 mph /  7.9 km/h 40 % 0 in /  0.0 mm
19:17 75.4 °F /  24.1 °C 48.7 °F /  9.3 °C 30.1 in /  1017.8 hPa SW 5.8 mph /  9.3 km/h 5.8 mph /  9.3 km/h 39 % 0 in /  0.0 mm
19:22 75.4 °F /  24.1 °C 49.5 °F /  9.7 °C 30 in /  1015.8 hPa SW 3.5 mph /  5.6 km/h 3.5 mph /  5.6 km/h 40 % 0 in /  0.0 mm
19:25 62.8 °F /  17.1 °C 49.6 °F /  9.8 °C 30.1 in /  1018.8 hPa WSW 1 mph /  1.6 km/h 2 mph /  3.2 km/h 62 % 0 in /  0.0 mm
19:27 75 °F /  23.9 °C 49.1 °F /  9.5 °C 30 in /  1015.8 hPa SW 4.6 mph /  7.4 km/h 4.6 mph /  7.4 km/h 40 % 0 in /  0.0 mm
19:32 74.8 °F /  23.8 °C 48.9 °F /  9.4 °C 30 in /  1015.8 hPa SSW 3.5 mph /  5.6 km/h 3.5 mph /  5.6 km/h 40 % 0 in /  0.0 mm
19:35 62.6 °F /  17.0 °C 49.8 °F /  9.9 °C 30.1 in /  1018.8 hPa WSW 1 mph /  1.6 km/h 2 mph /  3.2 km/h 63 % 0 in /  0.0 mm
19:37 74.8 °F /  23.8 °C 48.9 °F /  9.4 °C 30 in /  1015.8 hPa SW 5.9 mph /  9.5 km/h 5.9 mph /  9.5 km/h 40 % 0 in /  0.0 mm
19:43 74.5 °F /  23.6 °C 48.6 °F /  9.2 °C 30 in /  1015.8 hPa SW 6.9 mph /  11.1 km/h 6.9 mph /  11.1 km/h 40 % 0 in /  0.0 mm
19:45 62.2 °F /  16.8 °C 49.8 °F /  9.9 °C 30.1 in /  1018.8 hPa WSW 2 mph /  3.2 km/h 3 mph /  4.8 km/h 64 % 0 in /  0.0 mm
19:48 74.3 °F /  23.5 °C 48.4 °F /  9.1 °C 30 in /  1015.8 hPa WSW 3.5 mph /  5.6 km/h 3.5 mph /  5.6 km/h 40 % 0 in /  0.0 mm
19:53 74.1 °F /  23.4 °C 48.2 °F /  9.0 °C 30 in /  1015.8 hPa WSW 4.9 mph /  7.9 km/h 4.9 mph /  7.9 km/h 40 % 0 in /  0.0 mm
19:55 62.1 °F /  16.7 °C 49.6 °F /  9.8 °C 30.1 in /  1019.9 hPa Calm   1 mph /  1.6 km/h 64 % 0 in /  0.0 mm
19:58 73.8 °F /  23.2 °C 47.8 °F /  8.8 °C 30 in /  1015.8 hPa SW 3.5 mph /  5.6 km/h 3.5 mph /  5.6 km/h 40 % 0 in /  0.0 mm
20:03 73.6 °F /  23.1 °C 47.8 °F /  8.8 °C 30 in /  1015.8 hPa WSW 2.3 mph /  3.7 km/h 2.3 mph /  3.7 km/h 40 % 0 in /  0.0 mm
20:05 61.9 °F /  16.6 °C 49.6 °F /  9.8 °C 30.1 in /  1019.9 hPa Calm     64 % 0 in /  0.0 mm
20:08 73.6 °F /  23.1 °C 47.8 °F /  8.8 °C 30 in /  1015.8 hPa WSW 2.3 mph /  3.7 km/h   40 % 0 in /  0.0 mm
20:13 73.6 °F /  23.1 °C 47.8 °F /  8.8 °C 30 in /  1015.8 hPa WNW 2.3 mph /  3.7 km/h 2.3 mph /  3.7 km/h 40 % 0 in /  0.0 mm
20:15 61.9 °F /  16.6 °C 49.6 °F /  9.8 °C 30.1 in /  1019.9 hPa Calm     64 % 0 in /  0.0 mm
20:18 73 °F /  22.8 °C 47.8 °F /  8.8 °C 30 in /  1015.8 hPa WSW 3.5 mph /  5.6 km/h 3.5 mph /  5.6 km/h 41 % 0 in /  0.0 mm
20:20 73 °F /  22.8 °C 47.8 °F /  8.8 °C 30 in /  1015.8 hPa West 2.3 mph /  3.7 km/h 2.3 mph /  3.7 km/h 41 % 0 in /  0.0 mm
20:25 72.9 °F /  22.7 °C 47.8 °F /  8.8 °C 30 in /  1015.8 hPa Calm   2 mph /  3.2 km/h 41 % 0 in /  0.0 mm
20:26 72.5 °F /  22.5 °C 48 °F /  8.9 °C 30 in /  1015.8 hPa SE 2.3 mph /  3.7 km/h 2.3 mph /  3.7 km/h 42 % 0 in /  0.0 mm
20:29 71.8 °F /  22.1 °C 48 °F /  8.9 °C 30 in /  1015.8 hPa East 4.6 mph /  7.4 km/h 4.6 mph /  7.4 km/h 43 % 0 in /  0.0 mm
20:31 71.4 °F /  21.9 °C 48.4 °F /  9.1 °C 30 in /  1015.8 hPa East 4.6 mph /  7.4 km/h 4.6 mph /  7.4 km/h 44 % 0 in /  0.0 mm
20:35 61.7 °F /  16.5 °C 50.2 °F /  10.1 °C 30.1 in /  1019.9 hPa ENE 1 mph /  1.6 km/h 2 mph /  3.2 km/h 66 % 0 in /  0.0 mm
20:36 70.9 °F /  21.6 °C 48.6 °F /  9.2 °C 30 in /  1015.8 hPa ESE 5.8 mph /  9.3 km/h 5.8 mph /  9.3 km/h 45 % 0 in /  0.0 mm
20:41 70.5 °F /  21.4 °C 48.7 °F /  9.3 °C 30 in /  1015.8 hPa East 5.8 mph /  9.3 km/h 5.8 mph /  9.3 km/h 46 % 0 in /  0.0 mm
20:42 70.5 °F /  21.4 °C 48.7 °F /  9.3 °C 30 in /  1015.8 hPa East 5.8 mph /  9.3 km/h 5.8 mph /  9.3 km/h 46 % 0 in /  0.0 mm
20:45 61.2 °F /  16.2 °C 49.6 °F /  9.8 °C 30.1 in /  1018.8 hPa Calm   1 mph /  1.6 km/h 66 % 0 in /  0.0 mm
20:47 70.2 °F /  21.2 °C 48.9 °F /  9.4 °C 30 in /  1015.8 hPa ESE 4.6 mph /  7.4 km/h 4.6 mph /  7.4 km/h 47 % 0 in /  0.0 mm
20:52 69.8 °F /  21.0 °C 49.3 °F /  9.6 °C 30 in /  1015.8 hPa ESE 4.6 mph /  7.4 km/h 4.6 mph /  7.4 km/h 48 % 0 in /  0.0 mm
20:55 61.2 °F /  16.2 °C 50.2 °F /  10.1 °C 30.1 in /  1019.9 hPa Calm     67 % 0 in /  0.0 mm
20:57 69.4 °F /  20.8 °C 49.5 °F /  9.7 °C 30 in /  1015.8 hPa ENE 3.5 mph /  5.6 km/h 3.5 mph /  5.6 km/h 49 % 0 in /  0.0 mm
21:02 69.1 °F /  20.6 °C 49.6 °F /  9.8 °C 30 in /  1015.8 hPa NE 2.3 mph /  3.7 km/h 2.3 mph /  3.7 km/h 50 % 0 in /  0.0 mm
21:05 61.3 °F /  16.3 °C 50.7 °F /  10.4 °C 30.1 in /  1019.9 hPa NE 1 mph /  1.6 km/h 3 mph /  4.8 km/h 68 % 0 in /  0.0 mm
21:07 68.9 °F /  20.5 °C 50 °F /  10.0 °C 30 in /  1016.8 hPa ENE 2.4 mph /  3.9 km/h 2.4 mph /  3.9 km/h 51 % 0 in /  0.0 mm
21:12 68.7 °F /  20.4 °C 49.8 °F /  9.9 °C 30 in /  1016.8 hPa ENE 3.5 mph /  5.6 km/h 3.5 mph /  5.6 km/h 51 % 0 in /  0.0 mm
21:15 61 °F /  16.1 °C 50.7 °F /  10.4 °C 30.1 in /  1019.9 hPa Calm   1 mph /  1.6 km/h 69 % 0 in /  0.0 mm
21:17 68.5 °F /  20.3 °C 50.2 °F /  10.1 °C 30 in /  1016.8 hPa ESE 2.4 mph /  3.9 km/h 2.4 mph /  3.9 km/h 52 % 0 in /  0.0 mm
21:23 68.4 °F /  20.2 °C 50 °F /  10.0 °C 30.1 in /  1017.8 hPa East 2.3 mph /  3.7 km/h 2.3 mph /  3.7 km/h 52 % 0 in /  0.0 mm
21:25 60.8 °F /  16.0 °C 50.5 °F /  10.3 °C 30.1 in /  1019.9 hPa Calm   1 mph /  1.6 km/h 69 % 0 in /  0.0 mm
21:28 68.4 °F /  20.2 °C 50 °F /  10.0 °C 30.1 in /  1017.8 hPa SW 1.2 mph /  1.9 km/h 1.2 mph /  1.9 km/h 52 % 0 in /  0.0 mm
21:33 68.2 °F /  20.1 °C 49.8 °F /  9.9 °C 30.1 in /  1017.8 hPa WSW 2.3 mph /  3.7 km/h   52 % 0 in /  0.0 mm
21:35 60.8 °F /  16.0 °C 51.1 °F /  10.6 °C 30.1 in /  1019.9 hPa Calm     70 % 0 in /  0.0 mm
21:38 68 °F /  20.0 °C 49.6 °F /  9.8 °C 30.1 in /  1017.8 hPa Calm     52 % 0 in /  0.0 mm
21:43 67.8 °F /  19.9 °C 50.2 °F /  10.1 °C 30.1 in /  1017.8 hPa NNE 2.3 mph /  3.7 km/h 2.3 mph /  3.7 km/h 53 % 0 in /  0.0 mm
21:45 60.8 °F /  16.0 °C 51.3 °F /  10.7 °C 30.1 in /  1019.9 hPa Calm     71 % 0 in /  0.0 mm
21:48 67.8 °F /  19.9 °C 50.5 °F /  10.3 °C 30.1 in /  1017.8 hPa NNE 2.4 mph /  3.9 km/h 2.4 mph /  3.9 km/h 54 % 0 in /  0.0 mm
21:53 67.8 °F /  19.9 °C 50.5 °F /  10.3 °C 30.1 in /  1017.8 hPa NE 3.5 mph /  5.6 km/h 3.5 mph /  5.6 km/h 54 % 0 in /  0.0 mm
21:55 60.8 °F /  16.0 °C 51.6 °F /  10.9 °C 30.1 in /  1019.9 hPa NNE 1 mph /  1.6 km/h 1 mph /  1.6 km/h 72 % 0 in /  0.0 mm
21:58 67.5 °F /  19.7 °C 50.7 °F /  10.4 °C 30.1 in /  1017.8 hPa ENE 3.5 mph /  5.6 km/h 3.5 mph /  5.6 km/h 55 % 0 in /  0.0 mm
22:03 67.1 °F /  19.5 °C 50.4 °F /  10.2 °C 30.1 in /  1017.8 hPa NNE 3.5 mph /  5.6 km/h 3.5 mph /  5.6 km/h 55 % 0 in /  0.0 mm
22:05 60.8 °F /  16.0 °C 52.2 °F /  11.2 °C 30.1 in /  1019.9 hPa NE 1 mph /  1.6 km/h 2 mph /  3.2 km/h 73 % 0 in /  0.0 mm
22:08 66.9 °F /  19.4 °C 50.7 °F /  10.4 °C 30.1 in /  1017.8 hPa East 2.3 mph /  3.7 km/h 2.3 mph /  3.7 km/h 56 % 0 in /  0.0 mm
22:13 66.7 °F /  19.3 °C 50.5 °F /  10.3 °C 30.1 in /  1017.8 hPa NNE 3.5 mph /  5.6 km/h 3.5 mph /  5.6 km/h 56 % 0 in /  0.0 mm
22:15 60.6 °F /  15.9 °C 52.3 °F /  11.3 °C 30.1 in /  1019.9 hPa Calm   2 mph /  3.2 km/h 74 % 0 in /  0.0 mm
22:18 66.6 °F /  19.2 °C 50.7 °F /  10.4 °C 30.1 in /  1017.8 hPa ENE 2.3 mph /  3.7 km/h 2.3 mph /  3.7 km/h 57 % 0 in /  0.0 mm
22:23 66.4 °F /  19.1 °C 50.7 °F /  10.4 °C 30.1 in /  1018.8 hPa NE 2.3 mph /  3.7 km/h 2.3 mph /  3.7 km/h 57 % 0 in /  0.0 mm
22:25 60.6 °F /  15.9 °C 52.3 °F /  11.3 °C 30.1 in /  1019.9 hPa Calm   1 mph /  1.6 km/h 74 % 0 in /  0.0 mm
22:28 66.4 °F /  19.1 °C 50.7 °F /  10.4 °C 30.1 in /  1018.8 hPa East 2.3 mph /  3.7 km/h 2.3 mph /  3.7 km/h 57 % 0 in /  0.0 mm
22:33 66.2 °F /  19.0 °C 50.5 °F /  10.3 °C 30.1 in /  1018.8 hPa West 2.3 mph /  3.7 km/h 2.3 mph /  3.7 km/h 57 % 0 in /  0.0 mm
22:35 60.6 °F /  15.9 °C 52.3 °F /  11.3 °C 30.1 in /  1019.9 hPa Calm   1 mph /  1.6 km/h 74 % 0 in /  0.0 mm
22:38 65.8 °F /  18.8 °C 50.5 °F /  10.3 °C 30.1 in /  1018.8 hPa SW 2.3 mph /  3.7 km/h 2.3 mph /  3.7 km/h 58 % 0 in /  0.0 mm
22:43 65.5 °F /  18.6 °C 50.7 °F /  10.4 °C 30.1 in /  1018.8 hPa WSW 1.2 mph /  1.9 km/h   59 % 0 in /  0.0 mm
22:45 60.6 °F /  15.9 °C 52.3 °F /  11.3 °C 30.1 in /  1018.8 hPa NNW 1 mph /  1.6 km/h 2 mph /  3.2 km/h 74 % 0 in /  0.0 mm
22:48 65.5 °F /  18.6 °C 50.7 °F /  10.4 °C 30.1 in /  1018.8 hPa Calm     59 % 0 in /  0.0 mm
22:53 65.3 °F /  18.5 °C 50.5 °F /  10.3 °C 30.1 in /  1018.8 hPa Calm     59 % 0 in /  0.0 mm
22:55 60.6 °F /  15.9 °C 52.5 °F /  11.4 °C 30.1 in /  1019.9 hPa Calm   1 mph /  1.6 km/h 75 % 0 in /  0.0 mm
22:59 65.3 °F /  18.5 °C 50.5 °F /  10.3 °C 30.1 in /  1018.8 hPa WSW 1.2 mph /  1.9 km/h   59 % 0 in /  0.0 mm
23:04 65.3 °F /  18.5 °C 51.1 °F /  10.6 °C 30.1 in /  1018.8 hPa Calm     60 % 0 in /  0.0 mm
23:05 60.6 °F /  15.9 °C 52.5 °F /  11.4 °C 30.1 in /  1019.9 hPa WNW 1 mph /  1.6 km/h 2 mph /  3.2 km/h 75 % 0 in /  0.0 mm
23:09 65.3 °F /  18.5 °C 51.1 °F /  10.6 °C 30.1 in /  1018.8 hPa Calm     60 % 0 in /  0.0 mm
23:14 65.1 °F /  18.4 °C 50.9 °F /  10.5 °C 30.1 in /  1018.8 hPa Calm     60 % 0 in /  0.0 mm
23:15 60.4 °F /  15.8 °C 52.9 °F /  11.6 °C 30.1 in /  1018.8 hPa Calm   1 mph /  1.6 km/h 76 % 0 in /  0.0 mm
23:19 65.1 °F /  18.4 °C 51.3 °F /  10.7 °C 30.1 in /  1018.8 hPa Calm     61 % 0 in /  0.0 mm
23:24 65.1 °F /  18.4 °C 51.3 °F /  10.7 °C 30.1 in /  1018.8 hPa NNE 1.2 mph /  1.9 km/h 1.2 mph /  1.9 km/h 61 % 0 in /  0.0 mm
23:25 60.1 °F /  15.6 °C 52.5 °F /  11.4 °C 30.1 in /  1019.9 hPa Calm   2 mph /  3.2 km/h 76 % 0 in /  0.0 mm
23:30 64.9 °F /  18.3 °C 51.3 °F /  10.7 °C 30.1 in /  1018.8 hPa NNW 1.2 mph /  1.9 km/h 1.2 mph /  1.9 km/h 61 % 0 in /  0.0 mm
23:35 64.9 °F /  18.3 °C 51.3 °F /  10.7 °C 30.1 in /  1018.8 hPa NE 2 mph /  3.2 km/h   61 % 0 in /  0.0 mm
23:40 64.9 °F /  18.3 °C 51.3 °F /  10.7 °C 30.1 in /  1018.8 hPa NNE 2.2 mph /  3.5 km/h   61 % 0 in /  0.0 mm
23:45 64.8 °F /  18.2 °C 51.1 °F /  10.6 °C 30.1 in /  1018.8 hPa NE 1 mph /  1.6 km/h 3 mph /  4.8 km/h 61 % 0 in /  0.0 mm
23:50 64.4 °F /  18.0 °C 51.1 °F /  10.6 °C 30.1 in /  1018.8 hPa NE 2.3 mph /  3.7 km/h 2.3 mph /  3.7 km/h 62 % 0 in /  0.0 mm
23:55 64.2 °F /  17.9 °C 50.9 °F /  10.5 °C 30.1 in /  1018.8 hPa ENE 1.6 mph /  2.6 km/h 1.6 mph /  2.6 km/h 62 % 0 in /  0.0 mm
Meteo Sesrovires
Elogis d' Weather Underground - 3.5 mb

Guio original per  Jim McMurry - jmcmurry@mwt.net Adaptat per a la plantilla per  Wim van der Kuil - Leuven-Template.eu

Trobareu la nostra informacio del temps tambe a:

Weather Underground

AWEKAS